Time;durP1;ratioP1;P1;durP2;ratioP2;P2;SDS_P1;SDS_P2;PMS_P1;PMS_P2;Temp;Humidity;BMP_temperature;BMP_pressure;BME280_temperature;BME280_humidity;BME280_pressure;Samples;Min_cycle;Max_cycle;Signal;HPM_P1;HPM_P2
2021/09/04 00:02:05;;;;;;;11.50;3.67;;;;;;;10.54;100.00;101538.13;5029044;28;20041;-68
2021/09/04 00:04:31;;;;;;;11.38;3.85;;;;;;;10.53;100.00;101539.09;5012678;28;20036;-68
2021/09/04 00:06:56;;;;;;;9.17;3.93;;;;;;;10.49;100.00;101537.72;5046728;28;20127;-68
2021/09/04 00:09:22;;;;;;;7.68;3.42;;;;;;;10.55;100.00;101541.63;5029287;28;20052;-68
2021/09/04 00:11:48;;;;;;;15.63;3.95;;;;;;;10.54;100.00;101539.94;5045142;22;21701;-68
2021/09/04 00:14:14;;;;;;;13.17;4.17;;;;;;;10.48;100.00;101541.34;5046455;28;20072;-68
2021/09/04 00:16:39;;;;;;;14.30;4.17;;;;;;;10.45;100.00;101530.97;5046460;28;20037;-68
2021/09/04 00:19:04;;;;;;;15.43;4.47;;;;;;;10.43;100.00;101532.94;5029073;28;20037;-68
2021/09/04 00:21:30;;;;;;;11.37;3.67;;;;;;;10.43;100.00;101530.25;5029136;28;20037;-68
2021/09/04 00:23:55;;;;;;;14.87;4.27;;;;;;;10.44;100.00;101518.63;5028955;28;20029;-68
2021/09/04 00:26:22;;;;;;;17.73;4.57;;;;;;;10.38;100.00;101521.84;5028723;28;20141;-68
2021/09/04 00:28:48;;;;;;;15.48;5.22;;;;;;;10.45;100.00;101520.28;5046632;28;20094;-68
2021/09/04 00:31:14;;;;;;;17.20;4.15;;;;;;;10.33;100.00;101522.28;5046499;28;20032;-68
2021/09/04 00:33:39;;;;;;;9.43;3.73;;;;;;;10.28;100.00;101519.19;5029096;28;20358;-68
2021/09/04 00:36:04;;;;;;;10.70;3.70;;;;;;;10.28;100.00;101518.31;5028479;28;20048;-68
2021/09/04 00:38:30;;;;;;;15.50;3.53;;;;;;;10.28;100.00;101519.19;5046628;28;20106;-68
2021/09/04 00:40:55;;;;;;;12.00;3.70;;;;;;;10.32;100.00;101517.06;5028946;28;20420;-68
2021/09/04 00:43:20;;;;;;;13.90;4.23;;;;;;;10.29;100.00;101514.69;5028734;28;20415;-68
2021/09/04 00:45:46;;;;;;;19.27;4.77;;;;;;;10.31;100.00;101518.06;5028494;28;20087;-68
2021/09/04 00:48:11;;;;;;;18.20;4.43;;;;;;;10.23;100.00;101521.41;5028471;28;20029;-68
2021/09/04 00:50:37;;;;;;;11.47;3.17;;;;;;;10.28;100.00;101526.31;5047058;28;20122;-68
2021/09/04 00:53:04;;;;;;;14.48;4.55;;;;;;;10.30;100.00;101522.56;5032208;28;20131;-68
2021/09/04 00:55:29;;;;;;;13.60;3.78;;;;;;;10.24;100.00;101516.91;5049673;28;20048;-68
2021/09/04 00:57:55;;;;;;;11.43;4.83;;;;;;;10.20;100.00;101520.84;5032152;28;20025;-68
2021/09/04 01:00:20;;;;;;;9.13;3.45;;;;;;;10.18;100.00;101533.47;5032409;28;20694;-68
2021/09/04 01:02:46;;;;;;;15.48;3.22;;;;;;;10.11;100.00;101528.72;5049596;28;20060;-68
2021/09/04 01:05:14;;;;;;;13.65;3.78;;;;;;;10.19;100.00;101529.84;5015961;28;20357;-68
2021/09/04 01:07:40;;;;;;;14.85;4.40;;;;;;;10.18;100.00;101528.13;5015347;28;20029;-68
2021/09/04 01:10:08;;;;;;;14.70;4.50;;;;;;;10.08;100.00;101533.47;5032210;28;20095;-68
2021/09/04 01:12:34;;;;;;;9.38;3.70;;;;;;;10.07;100.00;101524.63;5048394;28;20021;-68
2021/09/04 01:14:59;;;;;;;10.93;3.70;;;;;;;10.07;100.00;101532.63;5015446;28;20314;-68
2021/09/04 01:17:25;;;;;;;13.87;3.57;;;;;;;10.12;100.00;101525.06;5049130;28;20377;-68
2021/09/04 01:19:51;;;;;;;11.10;4.30;;;;;;;10.11;100.00;101525.19;5049977;28;20103;-68
2021/09/04 01:22:17;;;;;;;15.47;4.07;;;;;;;10.05;100.00;101517.75;5031721;28;20044;-68
2021/09/04 01:24:48;;;;;;;13.27;3.45;;;;;;;9.96;100.00;101531.94;5049564;28;20102;-68
2021/09/04 01:27:15;;;;;;;7.97;3.70;;;;;;;9.98;100.00;101528.13;5031363;28;20056;-68
2021/09/04 01:29:40;;;;;;;9.48;3.97;;;;;;;10.01;100.00;101524.34;5032001;28;20074;-68
2021/09/04 01:32:06;;;;;;;19.17;5.10;;;;;;;9.98;100.00;101528.13;5049170;28;20028;-68
2021/09/04 01:34:31;;;;;;;8.13;3.10;;;;;;;9.92;100.00;101518.03;5031648;28;20525;-68
2021/09/04 01:36:57;;;;;;;8.97;4.77;;;;;;;9.89;100.00;101516.47;5049263;28;20069;-68
2021/09/04 01:39:22;;;;;;;16.43;3.90;;;;;;;9.90;100.00;101515.50;5031485;28;20053;-68
2021/09/04 01:41:49;;;;;;;10.37;3.40;;;;;;;9.94;100.00;101516.91;5031482;28;20049;-68
2021/09/04 01:44:14;;;;;;;8.65;3.17;;;;;;;10.03;100.00;101517.88;5014608;28;20029;-68
2021/09/04 01:46:39;;;;;;;17.03;3.97;;;;;;;10.00;100.00;101520.84;5048974;28;20476;-68
2021/09/04 01:49:05;;;;;;;15.97;3.90;;;;;;;10.07;100.00;101511.28;5048837;28;20048;-68
2021/09/04 01:51:31;;;;;;;15.30;3.90;;;;;;;10.18;100.00;101512.13;5014917;28;20052;-68
2021/09/04 01:53:56;;;;;;;13.60;3.55;;;;;;;10.25;100.00;101511.41;5031232;28;20476;-68
2021/09/04 01:56:21;;;;;;;10.47;4.03;;;;;;;10.30;100.00;101506.53;5048512;28;20365;-68
2021/09/04 01:58:47;;;;;;;9.50;3.33;;;;;;;10.40;100.00;101506.53;5048781;28;20044;-68
2021/09/04 02:01:13;;;;;;;14.38;4.47;;;;;;;10.50;100.00;101507.34;5031160;28;20374;-68
2021/09/04 02:03:38;;;;;;;11.27;4.03;;;;;;;10.57;100.00;101503.09;5030325;28;20163;-68
2021/09/04 02:06:04;;;;;;;16.40;3.90;;;;;;;10.63;100.00;101501.72;5015074;28;20101;-68
2021/09/04 02:08:30;;;;;;;10.73;3.88;;;;;;;10.75;100.00;101495.19;5049831;28;20029;-68
2021/09/04 02:10:55;;;;;;;10.87;3.97;;;;;;;10.84;100.00;101496.16;5049583;28;20029;-68
2021/09/04 02:13:20;;;;;;;9.73;4.03;;;;;;;10.86;100.00;101496.00;5049369;28;20051;-68
2021/09/04 02:15:46;;;;;;;8.23;3.97;;;;;;;10.86;100.00;101493.34;5031457;28;20029;-68
2021/09/04 02:18:13;;;;;;;8.95;3.40;;;;;;;10.91;99.94;101494.59;5032067;28;20729;-68
2021/09/04 02:20:42;;;;;;;9.90;3.63;;;;;;;10.93;100.00;101497.97;5049310;28;20182;-68
2021/09/04 02:23:09;;;;;;;6.88;3.30;;;;;;;10.98;100.00;101501.03;5049507;28;20055;-68
2021/09/04 02:25:35;;;;;;;11.93;3.47;;;;;;;10.99;99.84;101500.03;5031589;28;20029;-68
2021/09/04 02:28:01;;;;;;;11.38;3.55;;;;;;;10.94;99.68;101493.47;5049091;28;20124;-68
2021/09/04 02:30:27;;;;;;;11.82;3.92;;;;;;;10.91;99.06;101491.06;5049056;28;20048;-68
2021/09/04 02:32:53;;;;;;;6.72;3.53;;;;;;;10.98;99.07;101489.50;5031824;28;20036;-68
2021/09/04 02:35:19;;;;;;;10.48;2.92;;;;;;;11.00;98.76;101492.84;5031401;28;20029;-68
2021/09/04 02:37:45;;;;;;;12.98;4.22;;;;;;;10.98;99.00;101490.34;5031333;28;20044;-68
2021/09/04 02:40:12;;;;;;;11.27;4.20;;;;;;;11.02;100.00;101487.38;5031689;28;20047;-68
2021/09/04 02:42:38;;;;;;;10.45;3.55;;;;;;;11.07;99.13;101485.09;5014754;28;20466;-68
2021/09/04 02:45:04;;;;;;;12.07;4.67;;;;;;;10.99;97.75;101484.00;5031412;28;20033;-68
2021/09/04 02:47:31;;;;;;;13.40;4.82;;;;;;;11.09;98.24;101477.78;5014663;28;20115;-68
2021/09/04 02:49:57;;;;;;;8.23;4.22;;;;;;;11.12;98.42;101482.81;5049069;28;20588;-68
2021/09/04 02:54:51;;;;;;;14.65;4.40;;;;;;;11.08;97.71;101479.59;5022436;22;20075;-68
2021/09/04 02:57:16;;;;;;;10.30;3.73;;;;;;;11.11;97.25;101478.47;5029824;28;20028;-68
2021/09/04 02:59:42;;;;;;;12.90;5.30;;;;;;;11.15;97.89;101479.88;5013727;28;20063;-68
2021/09/04 03:02:08;;;;;;;9.05;3.88;;;;;;;11.17;98.14;101473.38;5029970;28;20433;-68
2021/09/04 03:04:34;;;;;;;14.03;4.57;;;;;;;11.18;98.14;101467.03;5030067;28;20091;-68
2021/09/04 03:07:00;;;;;;;;;;;;;;;11.22;98.75;101475.59;5047481;28;20640;-68
2021/09/04 03:09:27;;;;;;;9.20;3.88;;;;;;;11.11;98.17;101470.44;5030280;28;20031;-68
2021/09/04 03:11:52;;;;;;;14.77;4.40;;;;;;;11.16;98.07;101476.19;5047538;28;20253;-68
2021/09/04 03:14:18;;;;;;;9.80;4.73;;;;;;;11.14;97.66;101473.69;5047238;28;20294;-68
2021/09/04 03:16:44;;;;;;;12.02;4.32;;;;;;;11.10;97.29;101463.44;5013309;28;20515;-68
2021/09/04 03:19:09;;;;;;;9.23;3.80;;;;;;;11.14;97.86;101467.47;5047489;28;20115;-68
2021/09/04 03:21:37;;;;;;;11.05;4.47;;;;;;;11.14;97.33;101476.34;5013579;28;20112;-68
2021/09/04 03:24:03;;;;;;;12.80;5.43;;;;;;;11.16;97.64;101481.53;5013248;28;20036;-68
2021/09/04 03:26:29;;;;;;;11.88;4.10;;;;;;;11.16;97.35;101476.19;5047068;28;20033;-68
2021/09/04 03:28:55;;;;;;;8.10;4.63;;;;;;;11.20;98.50;101469.56;5047928;28;20040;-68
2021/09/04 03:31:21;;;;;;;11.60;5.30;;;;;;;11.14;98.50;101471.00;5048228;28;20171;-68
2021/09/04 03:33:48;;;;;;;12.98;5.10;;;;;;;11.11;97.08;101473.97;5048133;28;20464;-68
2021/09/04 03:36:14;;;;;;;12.83;4.73;;;;;;;11.19;96.54;101466.06;5047931;28;20068;-68
2021/09/04 03:38:39;;;;;;;9.55;3.95;;;;;;;11.29;95.48;101463.31;5030880;28;20071;-68
2021/09/04 03:41:04;;;;;;;13.63;4.90;;;;;;;11.34;95.85;101461.03;5030855;28;20124;-68
2021/09/04 03:43:31;;;;;;;14.15;5.22;;;;;;;11.39;95.72;101457.91;5030597;28;20111;-68
2021/09/04 03:45:57;;;;;;;9.75;4.57;;;;;;;11.40;96.08;101459.59;5047699;28;20028;-68
2021/09/04 03:48:23;;;;;;;13.45;4.45;;;;;;;11.37;95.81;101460.72;5031026;28;20025;-68
2021/09/04 03:50:50;;;;;;;8.73;4.90;;;;;;;11.45;95.94;101457.31;5046616;22;20037;-68
2021/09/04 03:53:15;;;;;;;8.43;4.53;;;;;;;11.41;96.11;101461.28;5028918;28;20033;-68
2021/09/04 03:55:41;;;;;;;11.83;4.60;;;;;;;11.44;95.59;101462.81;5046569;28;20132;-68
2021/09/04 03:58:06;;;;;;;14.37;6.17;;;;;;;11.47;95.82;101473.19;5047057;28;20147;-68
2021/09/04 04:00:32;;;;;;;12.00;5.65;;;;;;;11.49;96.63;101471.22;5047044;28;20047;-68
2021/09/04 04:02:59;;;;;;;9.73;4.80;;;;;;;11.53;96.96;101480.63;5047210;28;20041;-68
2021/09/04 04:05:24;;;;;;;7.32;4.65;;;;;;;11.52;97.25;101476.25;5046729;28;20029;-68
2021/09/04 04:07:52;;;;;;;12.88;5.75;;;;;;;11.55;97.86;101474.13;5046537;28;20036;-68
2021/09/04 04:10:17;;;;;;;13.85;5.75;;;;;;;11.42;97.34;101473.66;5029250;28;20445;-68
2021/09/04 04:12:43;;;;;;;16.00;5.57;;;;;;;11.40;97.19;101473.81;5029127;28;20080;-68
2021/09/04 04:15:09;;;;;;;10.85;5.00;;;;;;;11.49;97.63;101476.56;5029220;28;20445;-68
2021/09/04 04:17:36;;;;;;;11.10;5.57;;;;;;;11.53;96.35;101486.81;5029001;28;20025;-68
2021/09/04 04:20:03;;;;;;;10.45;5.45;;;;;;;11.59;95.67;101480.03;5047025;28;20488;-68
2021/09/04 04:22:28;;;;;;;12.23;5.47;;;;;;;11.61;95.72;101478.03;5046299;28;20450;-68
2021/09/04 04:24:54;;;;;;;12.98;5.95;;;;;;;11.58;94.98;101487.19;5029128;28;20028;-68
2021/09/04 04:27:20;;;;;;;20.42;7.03;;;;;;;11.64;94.89;101475.06;5031915;28;20047;-68
2021/09/04 04:29:46;;;;;;;11.13;5.70;;;;;;;11.67;94.96;101488.13;5050614;28;20047;-68
2021/09/04 04:32:12;;;;;;;16.70;6.60;;;;;;;11.64;93.85;101485.75;5032910;28;20025;-68
2021/09/04 04:34:38;;;;;;;11.93;5.05;;;;;;;11.70;94.42;101484.31;5016377;28;20472;-68
2021/09/04 04:37:04;;;;;;;12.00;4.53;;;;;;;11.80;94.73;101491.28;5032665;28;20033;-68
2021/09/04 04:39:30;;;;;;;10.02;5.45;;;;;;;11.80;95.18;101485.94;5033049;28;20035;-68
2021/09/04 04:41:59;;;;;;;12.50;6.05;;;;;;;11.81;94.37;101482.25;5032369;28;20404;-68
2021/09/04 04:44:24;;;;;;;10.80;5.70;;;;;;;11.81;93.35;101486.75;5032599;28;20033;-69
2021/09/04 04:46:52;;;;;;;11.90;5.32;;;;;;;11.88;93.32;101492.38;5050049;28;20036;-68
2021/09/04 04:49:17;;;;;;;12.17;6.07;;;;;;;11.92;93.91;101488.41;5032663;28;20037;-68
2021/09/04 04:51:45;;;;;;;14.02;5.47;;;;;;;11.83;93.34;101482.09;5049380;28;20140;-68
2021/09/04 04:54:10;;;;;;;15.67;5.70;;;;;;;11.80;92.70;101485.94;5015830;28;20115;-68
2021/09/04 04:56:36;;;;;;;14.20;5.40;;;;;;;11.86;93.45;101491.66;5049849;28;20258;-68
2021/09/04 04:59:02;;;;;;;9.27;5.20;;;;;;;11.91;92.84;101492.06;5031859;28;20534;-68
2021/09/04 05:01:27;;;;;;;17.87;5.53;;;;;;;11.89;92.73;101494.03;5032190;28;20422;-68
2021/09/04 05:03:54;;;;;;;12.52;5.25;;;;;;;11.96;92.41;101500.47;5032221;28;20532;-68
2021/09/04 05:06:19;;;;;;;11.77;5.57;;;;;;;12.00;91.45;101496.50;5015541;28;20144;-68
2021/09/04 05:08:44;;;;;;;10.37;5.83;;;;;;;12.01;91.55;101498.16;5049779;28;20029;-68
2021/09/04 05:11:10;;;;;;;15.17;6.00;;;;;;;12.07;91.48;101502.09;5050179;28;20091;-68
2021/09/04 05:13:35;;;;;;;14.50;7.03;;;;;;;12.12;92.54;101500.63;5049843;28;20035;-68
2021/09/04 05:16:01;;;;;;;16.05;7.10;;;;;;;12.19;93.15;101501.69;5049464;28;20052;-68
2021/09/04 05:18:26;;;;;;;11.33;5.50;;;;;;;12.22;92.25;101500.53;5049933;28;20147;-68
2021/09/04 05:20:52;;;;;;;10.30;5.37;;;;;;;12.26;92.29;101499.22;5049639;28;20037;-68
2021/09/04 05:23:19;;;;;;;15.80;6.25;;;;;;;12.16;91.27;101496.63;5031949;28;20299;-68
2021/09/04 05:25:44;;;;;;;12.75;5.93;;;;;;;12.25;92.79;101502.91;5048936;28;20047;-68
2021/09/04 05:28:10;;;;;;;15.67;5.97;;;;;;;12.24;90.33;101501.22;5049533;28;20020;-68
2021/09/04 05:30:35;;;;;;;11.87;6.67;;;;;;;12.36;90.67;101500.00;5049141;28;20045;-68
2021/09/04 05:33:01;;;;;;;23.23;7.70;;;;;;;12.40;90.91;101498.66;5031844;28;20033;-68
2021/09/04 05:35:26;;;;;;;16.30;6.20;;;;;;;12.43;90.86;101502.88;5049009;28;20025;-68
2021/09/04 05:37:51;;;;;;;11.97;5.27;;;;;;;12.46;90.08;101499.91;5048968;28;20529;-68
2021/09/04 05:40:16;;;;;;;14.47;7.40;;;;;;;12.52;89.53;101496.56;5049133;28;20040;-68
2021/09/04 05:42:42;;;;;;;15.07;6.83;;;;;;;12.66;89.90;101493.31;5049192;28;20086;-68
2021/09/04 05:45:08;;;;;;;14.68;5.28;;;;;;;12.66;89.50;101493.31;5049259;28;20041;-68
2021/09/04 05:47:34;;;;;;;11.05;6.55;;;;;;;12.72;88.82;101491.03;5032421;28;20051;-68
2021/09/04 05:49:59;;;;;;;13.97;6.00;;;;;;;12.63;89.24;101488.28;5032689;28;20029;-68
2021/09/04 05:52:24;;;;;;;9.83;5.13;;;;;;;12.81;89.79;101487.41;5032480;28;20146;-68
2021/09/04 05:54:50;;;;;;;12.83;6.27;;;;;;;13.04;88.77;101488.50;5032389;28;20076;-68
2021/09/04 05:57:15;;;;;;;11.73;5.63;;;;;;;13.89;87.03;101487.59;5032161;28;20040;-68
2021/09/04 05:59:40;;;;;;;15.93;6.10;;;;;;;14.44;82.84;101486.09;5032658;28;20044;-68
2021/09/04 06:02:06;;;;;;;12.70;6.43;;;;;;;15.40;79.91;101482.44;5031617;28;20545;-68
2021/09/04 06:04:35;;;;;;;16.23;5.30;;;;;;;15.97;75.14;101478.59;5048776;28;20063;-68
2021/09/04 06:07:00;;;;;;;14.85;5.63;;;;;;;16.49;72.80;101480.47;5014395;28;20141;-68
2021/09/04 06:09:25;;;;;;;10.77;5.80;;;;;;;17.13;71.78;101477.25;5048654;28;20120;-68
2021/09/04 06:11:51;;;;;;;12.73;6.10;;;;;;;17.09;70.17;101478.66;5030927;28;20143;-69
2021/09/04 06:14:16;;;;;;;13.47;5.90;;;;;;;17.78;69.00;101469.28;5014837;28;20147;-68
2021/09/04 06:16:42;;;;;;;17.07;6.90;;;;;;;18.26;66.91;101467.69;5048113;28;20143;-69
2021/09/04 06:19:07;;;;;;;12.97;6.60;;;;;;;18.06;68.33;101478.31;5031241;28;20035;-69
2021/09/04 06:21:32;;;;;;;11.77;5.47;;;;;;;18.20;67.15;101486.53;5048236;28;20056;-68
2021/09/04 06:23:58;;;;;;;27.53;6.73;;;;;;;17.95;67.21;101481.53;5048395;28;20052;-69
2021/09/04 06:26:23;;;;;;;13.73;7.00;;;;;;;17.60;68.22;101486.75;5048213;28;20028;-69
2021/09/04 06:28:48;;;;;;;10.70;5.87;;;;;;;17.83;68.56;101489.31;5030727;28;20374;-69
2021/09/04 06:31:14;;;;;;;14.30;5.23;;;;;;;18.07;67.76;101496.19;5030764;28;20428;-69
2021/09/04 06:33:39;;;;;;;11.20;6.17;;;;;;;18.04;67.16;101496.56;5030649;28;20273;-69
2021/09/04 06:36:04;;;;;;;15.53;6.33;;;;;;;18.26;65.67;101496.56;5047978;28;20119;-68
2021/09/04 06:38:30;;;;;;;11.70;6.37;;;;;;;18.62;65.75;101504.56;5048132;28;20120;-69
2021/09/04 06:40:55;;;;;;;9.70;5.33;;;;;;;18.81;66.14;101508.44;5048292;28;20033;-68
2021/09/04 06:43:20;;;;;;;13.03;6.23;;;;;;;18.47;66.14;101512.78;5047927;28;20651;-69
2021/09/04 06:45:46;;;;;;;19.40;7.10;;;;;;;18.30;65.97;101514.06;5030398;28;20849;-68
2021/09/04 06:48:11;;;;;;;16.73;6.17;;;;;;;17.76;69.28;101526.19;5029915;28;20735;-68
2021/09/04 06:50:37;;;;;;;12.90;6.00;;;;;;;18.10;69.58;101522.84;5077382;22;20044;-83
2021/09/04 06:53:03;;;;;;;18.77;7.07;;;;;;;18.47;67.65;101512.78;5025122;28;20035;-86
2021/09/04 06:55:28;;;;;;;15.15;6.75;;;;;;;18.56;66.35;101522.38;5002656;28;20092;-85
2021/09/04 06:57:59;;;;;;;11.03;5.67;;;;;;;19.20;64.55;101498.88;5017840;28;20660;-85
2021/09/04 07:00:35;;;;;;;17.30;6.22;;;;;;;18.24;67.43;101488.66;5001043;28;20043;-85
2021/09/04 07:03:00;;;;;;;14.35;6.40;;;;;;;19.00;65.34;101492.53;5001418;28;20045;-86
2021/09/04 07:05:28;;;;;;;14.20;7.18;;;;;;;18.89;65.29;101474.97;5017755;28;20056;-86
2021/09/04 07:07:53;;;;;;;12.53;5.83;;;;;;;19.21;65.75;101492.44;4996697;28;20491;-84
2021/09/04 07:10:19;;;;;;;18.30;6.00;;;;;;;19.19;65.59;101511.56;5013299;28;20383;-84
2021/09/04 07:12:44;;;;;;;13.93;6.57;;;;;;;18.96;66.59;101511.88;5012948;28;20033;-84
2021/09/04 07:15:12;;;;;;;9.70;6.23;;;;;;;17.91;68.70;101510.81;4996489;28;20048;-84
2021/09/04 07:17:38;;;;;;;10.45;5.47;;;;;;;17.65;71.34;101514.03;4996022;28;20119;-84
2021/09/04 07:20:05;;;;;;;13.68;6.07;;;;;;;17.54;71.37;101519.94;5012561;28;20052;-84
2021/09/04 07:22:30;;;;;;;13.27;6.45;;;;;;;17.82;70.27;101540.84;5012386;28;20037;-84
2021/09/04 07:24:56;;;;;;;14.07;6.53;;;;;;;17.49;71.00;101525.91;5012033;28;20816;-84
2021/09/04 07:27:21;;;;;;;20.07;7.03;;;;;;;16.84;74.63;101532.06;5012089;28;20288;-84
2021/09/04 07:29:46;;;;;;;14.90;6.47;;;;;;;16.23;77.73;101518.63;5013119;28;20044;-84
2021/09/04 07:32:12;;;;;;;18.47;7.73;;;;;;;16.56;75.14;101518.31;4996349;28;20036;-85
2021/09/04 07:34:37;;;;;;;16.07;7.67;;;;;;;16.52;76.55;101515.16;4997098;28;20041;-85
2021/09/04 07:37:02;;;;;;;15.53;6.87;;;;;;;16.65;76.78;101530.72;4997007;28;20124;-84
2021/09/04 07:39:28;;;;;;;19.87;6.87;;;;;;;16.53;76.07;101524.94;5009879;28;20045;-86
2021/09/04 07:41:53;;;;;;;15.07;6.73;;;;;;;16.75;78.15;101528.56;5012447;28;20057;-84
2021/09/04 07:44:18;;;;;;;13.73;7.00;;;;;;;16.84;76.50;101548.25;5019644;28;20041;-84
2021/09/04 07:46:44;;;;;;;19.63;7.63;;;;;;;16.85;76.39;101539.94;4998560;28;20122;-84
2021/09/04 07:49:09;;;;;;;20.17;6.43;;;;;;;17.14;76.74;101549.09;5032529;28;20688;-84
2021/09/04 07:51:34;;;;;;;15.57;6.40;;;;;;;17.25;76.00;101551.31;5015315;28;20111;-84
2021/09/04 07:54:00;;;;;;;14.20;6.93;;;;;;;16.99;76.03;101551.78;4999401;28;20026;-84
2021/09/04 07:56:25;;;;;;;18.70;8.03;;;;;;;16.93;74.83;101560.63;4998801;28;20128;-85
2021/09/04 07:58:50;;;;;;;11.57;6.33;;;;;;;16.56;78.84;101556.91;5015283;28;20029;-84
2021/09/04 08:01:16;;;;;;;22.23;6.87;;;;;;;16.67;78.86;101561.03;5001899;28;20952;-85
2021/09/04 08:03:41;;;;;;;18.50;7.27;;;;;;;16.43;78.87;101570.13;5002879;28;20799;-84
2021/09/04 08:06:06;;;;;;;18.60;7.37;;;;;;;16.54;79.58;101566.19;5018852;28;20528;-86
2021/09/04 08:08:32;;;;;;;12.73;5.97;;;;;;;16.41;79.86;101570.34;5019416;28;20120;-85
2021/09/04 08:10:58;;;;;;;17.30;7.73;;;;;;;16.30;78.21;101573.47;5002430;28;20478;-86
2021/09/04 08:13:24;;;;;;;19.85;7.75;;;;;;;16.25;79.64;101575.84;5002689;28;20064;-83
2021/09/04 08:15:50;;;;;;;;;;;;;;;16.37;80.93;101585.19;5005801;28;20434;-84
2021/09/04 08:18:15;;;;;;;;;;;;;;;16.68;80.12;101586.94;5017349;28;19956;-84
2021/09/04 08:20:40;;;;;;;13.73;6.37;;;;;;;16.68;78.95;101577.00;5023390;28;20011;-84
2021/09/04 08:23:07;;;;;;;14.80;6.63;;;;;;;16.84;79.17;101581.44;5030093;28;20029;-84
2021/09/04 08:25:37;;;;;;;17.13;6.78;;;;;;;16.43;79.34;101589.84;5021009;28;20140;-85
2021/09/04 08:28:07;;;;;;;15.57;7.40;;;;;;;16.64;79.46;101594.56;5037573;28;20535;-84
2021/09/04 08:30:33;;;;;;;17.83;7.97;;;;;;;16.59;80.29;101582.66;5036903;28;20048;-83
2021/09/04 08:32:59;;;;;;;16.77;7.63;;;;;;;16.61;79.67;101580.63;5020621;28;20062;-84
2021/09/04 08:35:24;;;;;;;24.40;7.93;;;;;;;16.70;79.80;101594.88;5016811;28;20478;-84
2021/09/04 08:37:52;;;;;;;15.10;7.17;;;;;;;16.25;81.08;101586.63;5009716;28;20025;-85
2021/09/04 08:40:19;;;;;;;18.42;7.20;;;;;;;16.19;80.58;101587.34;5020456;28;20044;-84
2021/09/04 08:42:44;;;;;;;;;;;;;;;16.60;81.68;101595.97;5038259;28;20364;-86
2021/09/04 08:45:09;;;;;;;;;;;;;;;17.53;77.80;101596.53;5020748;28;19939;-84
2021/09/04 08:47:35;;;;;;;18.70;7.70;;;;;;;17.86;76.46;101596.13;5035166;28;20337;-83
2021/09/04 08:50:00;;;;;;;12.13;6.47;;;;;;;18.03;75.78;101594.88;5020159;28;20462;-85
2021/09/04 08:52:28;;;;;;;22.60;8.20;;;;;;;17.83;76.41;101599.22;5001416;28;20033;-83
2021/09/04 08:54:53;;;;;;;16.15;6.72;;;;;;;17.60;76.50;101602.84;5006844;28;20091;-83
2021/09/04 08:57:19;;;;;;;12.60;6.90;;;;;;;18.01;75.75;101596.13;5000116;28;20421;-83
2021/09/04 08:59:49;;;;;;;20.10;7.93;;;;;;;18.97;72.81;101615.53;5016739;28;20037;-84
2021/09/04 09:02:14;;;;;;;13.45;6.70;;;;;;;19.08;69.97;101606.03;4999667;28;20176;-84
2021/09/04 09:04:40;;;;;;;15.20;8.23;;;;;;;19.67;68.79;101605.53;5002969;28;20049;-84
2021/09/04 09:07:36;;;;;;;14.40;7.03;;;;;;;21.04;65.39;101607.03;5019202;28;20047;-86
2021/09/04 09:10:01;;;;;;;10.30;6.13;;;;;;;21.25;64.06;101610.53;5036709;28;20707;-85
2021/09/04 09:12:27;;;;;;;13.03;6.80;;;;;;;21.26;64.46;101606.78;5019905;28;20060;-85
2021/09/04 09:14:57;;;;;;;17.37;6.90;;;;;;;20.91;66.06;101607.06;5019765;28;20100;-84
2021/09/04 09:17:26;;;;;;;19.77;8.38;;;;;;;21.46;62.09;101610.31;5035941;28;20040;-85
2021/09/04 09:20:04;;;;;;;12.65;6.78;;;;;;;21.84;62.05;101601.38;5037043;28;20029;-84
2021/09/04 09:22:41;;;;;;;16.67;7.13;;;;;;;21.98;61.63;101606.75;5036406;28;20393;-83
2021/09/04 09:25:18;;;;;;;12.50;6.82;;;;;;;22.85;58.99;101616.00;5036200;28;20794;-85
2021/09/04 09:28:14;;;;;;;18.02;7.68;;;;;;;22.19;59.70;101613.72;5036054;28;20033;-82
2021/09/04 09:30:50;;;;;;;15.05;7.35;;;;;;;23.28;56.49;101607.00;5053821;28;20425;-84
2021/09/04 09:33:24;;;;;;;15.63;7.60;;;;;;;24.00;55.69;101604.47;5035656;28;20033;-87
2021/09/04 09:35:58;;;;;;;13.07;6.53;;;;;;;23.11;56.37;101590.44;5034634;28;20065;-84
2021/09/04 09:38:26;;;;;;;12.40;6.95;;;;;;;21.22;62.59;101606.38;5028345;28;20056;-85
2021/09/04 09:40:55;;;;;;;18.75;7.80;;;;;;;22.09;62.22;101598.72;5035327;28;20017;-84
2021/09/04 09:43:23;;;;;;;12.65;6.05;;;;;;;21.76;61.55;101569.00;5036845;28;20037;-87
2021/09/04 09:46:12;;;;;;;14.98;6.88;;;;;;;20.86;64.15;101563.41;5036021;28;20085;-88
2021/09/04 09:48:44;;;;;;;12.88;6.38;;;;;;;20.44;64.89;101560.09;5042457;28;20040;-86
2021/09/04 09:51:43;;;;;;;11.18;6.55;;;;;;;20.03;67.26;101572.72;5032648;28;20061;-87
2021/09/04 09:54:21;;;;;;;9.88;5.22;;;;;;;20.63;66.53;101593.72;5035299;28;20018;-84
2021/09/04 09:56:46;;;;;;;17.83;6.35;;;;;;;20.10;66.23;101594.44;5018636;28;20032;-87
2021/09/04 09:59:13;;;;;;;14.20;6.37;;;;;;;20.05;65.40;101607.78;5042364;28;20090;-86
2021/09/04 10:01:40;;;;;;;13.13;5.72;;;;;;;20.81;63.99;101587.63;5024417;28;20124;-85
2021/09/04 10:04:09;;;;;;;12.75;5.40;;;;;;;21.67;63.28;101616.50;5038432;28;20076;-88
2021/09/04 10:06:34;;;;;;;15.43;5.97;;;;;;;21.08;64.60;101615.59;5019617;28;20028;-85
2021/09/04 10:09:00;;;;;;;13.67;5.70;;;;;;;20.74;65.00;101622.09;5037505;28;20041;-83
2021/09/04 10:11:25;;;;;;;18.10;6.57;;;;;;;20.09;67.33;101625.31;5019829;28;20179;-87
2021/09/04 10:13:51;;;;;;;11.20;5.35;;;;;;;21.10;65.18;101618.09;5036223;28;20348;-83
2021/09/04 10:16:17;;;;;;;11.85;5.40;;;;;;;22.24;62.24;101612.06;5035427;28;20687;-88
2021/09/04 10:18:42;;;;;;;11.93;5.57;;;;;;;23.41;59.86;101622.38;5034949;28;20041;-86
2021/09/04 10:21:12;;;;;;;9.93;4.93;;;;;;;23.14;58.86;101616.38;5018555;28;20029;-87
2021/09/04 10:23:41;;;;;;;14.13;5.68;;;;;;;21.83;60.32;101612.47;5016969;28;20045;-88
2021/09/04 10:26:34;;;;;;;12.85;5.93;;;;;;;20.77;64.09;101630.66;5017083;28;20037;-87
2021/09/04 10:29:05;;;;;;;11.55;5.70;;;;;;;20.72;65.14;101624.16;5018560;28;20143;-87
2021/09/04 10:32:02;;;;;;;16.48;6.07;;;;;;;20.41;64.73;101631.81;5019199;28;20032;-88
2021/09/04 10:34:35;;;;;;;16.52;5.55;;;;;;;21.42;65.39;101619.94;5018138;28;20043;-88
2021/09/04 10:37:07;;;;;;;12.23;6.10;;;;;;;22.18;61.00;101621.06;5018747;28;20037;-88
2021/09/04 10:39:51;;;;;;;15.50;5.68;;;;;;;22.93;58.85;101606.72;5009038;28;20086;-87
2021/09/04 10:42:43;;;;;;;11.05;5.85;;;;;;;24.08;54.15;101610.66;4999434;28;20040;-88
2021/09/04 10:45:12;;;;;;;16.75;5.85;;;;;;;23.74;55.13;101615.72;4999246;28;20435;-88
2021/09/04 10:47:57;;;;;;;15.20;5.68;;;;;;;23.90;55.29;101612.34;5013555;28;20041;-87
2021/09/04 10:50:23;;;;;;;11.93;5.13;;;;;;;23.86;56.45;101621.22;4998267;28;20047;-85
2021/09/04 10:53:07;;;;;;;10.90;4.82;;;;;;;23.29;57.24;101613.28;4999070;28;20064;-85
2021/09/04 10:55:40;;;;;;;12.02;4.40;;;;;;;24.06;56.08;101619.06;4997917;28;20038;-86
2021/09/04 10:58:12;;;;;;;13.65;5.43;;;;;;;24.58;53.12;101610.34;5015335;28;20478;-86
2021/09/04 11:00:43;;;;;;;8.18;4.38;;;;;;;23.83;55.61;101614.34;5033192;28;20045;-86
2021/09/04 11:03:11;;;;;;;11.70;4.68;;;;;;;22.81;57.37;101617.50;5016223;28;20033;-86
2021/09/04 11:05:40;;;;;;;12.70;5.53;;;;;;;22.06;57.04;101610.06;5032807;28;20035;-86
2021/09/04 11:08:27;;;;;;;10.73;5.50;;;;;;;23.06;56.73;101617.53;5016352;28;20095;-85
2021/09/04 11:11:19;;;;;;;15.02;5.78;;;;;;;24.72;53.14;101611.78;5018092;28;20090;-85
2021/09/04 11:13:52;;;;;;;11.60;5.05;;;;;;;24.20;53.57;101609.63;5018562;28;20033;-85
2021/09/04 11:16:40;;;;;;;10.50;4.93;;;;;;;24.67;54.14;101610.84;5034324;28;20103;-86
2021/09/04 11:19:21;;;;;;;11.15;5.07;;;;;;;24.19;54.45;101607.97;5020261;28;20033;-86
2021/09/04 11:22:07;;;;;;;10.70;4.65;;;;;;;25.07;52.01;101613.69;5019321;28;20029;-88